Time;durP1;ratioP1;P1;durP2;ratioP2;P2;SDS_P1;SDS_P2;PMS_P1;PMS_P2;Temp;Humidity;BMP_temperature;BMP_pressure;BME280_temperature;BME280_humidity;BME280_pressure;Samples;Min_cycle;Max_cycle;Signal;HPM_P1;HPM_P2
2022/07/19 00:02:06;;;;;;;1.67;1.58;;;23.30;58.20;;;;;;5068314;28;20211;-71
2022/07/19 00:04:34;;;;;;;2.20;2.00;;;23.30;58.20;;;;;;5051382;28;20240;-71
2022/07/19 00:07:00;;;;;;;1.80;1.70;;;23.20;58.20;;;;;;5051334;28;20255;-71
2022/07/19 00:09:27;;;;;;;1.60;1.50;;;23.30;58.20;;;;;;5035303;28;20190;-71
2022/07/19 00:11:54;;;;;;;2.17;1.98;;;23.30;58.30;;;;;;5068084;28;20277;-71
2022/07/19 00:14:20;;;;;;;1.98;1.80;;;23.20;58.20;;;;;;5052617;28;20173;-71
2022/07/19 00:16:46;;;;;;;1.80;1.70;;;23.30;58.30;;;;;;5051526;28;20649;-71
2022/07/19 00:19:12;;;;;;;2.13;1.80;;;23.20;58.20;;;;;;5051414;28;20201;-71
2022/07/19 00:21:38;;;;;;;2.20;2.00;;;23.20;58.20;;;;;;5051325;28;20202;-71
2022/07/19 00:24:05;;;;;;;1.60;1.50;;;23.20;58.20;;;;;;5068237;28;20182;-71
2022/07/19 00:26:31;;;;;;;1.60;1.50;;;23.20;58.20;;;;;;5052082;28;20275;-71
2022/07/19 00:28:57;;;;;;;1.70;1.60;;;23.20;58.20;;;;;;5034594;28;20653;-71
2022/07/19 00:31:24;;;;;;;1.95;1.85;;;23.20;58.30;;;;;;5051102;28;20209;-71
2022/07/19 00:33:51;;;;;;;1.67;1.58;;;23.20;58.20;;;;;;5051099;28;20269;-71
2022/07/19 00:36:18;;;;;;;1.92;1.83;;;23.20;58.30;;;;;;5033337;28;20187;-71
2022/07/19 00:38:45;;;;;;;1.80;1.70;;;23.20;58.80;;;;;;5051312;28;20190;-71
2022/07/19 00:41:11;;;;;;;1.75;1.65;;;23.20;58.30;;;;;;5051018;28;20229;-71
2022/07/19 00:43:42;;;;;;;2.10;1.95;;;23.20;58.30;;;;;;5051066;28;20190;-71
2022/07/19 00:46:18;;;;;;;1.98;1.80;;;23.20;58.30;;;;;;5050007;28;20229;-71
2022/07/19 00:48:44;;;;;;;2.35;2.10;;;23.20;58.30;;;;;;5052234;28;20174;-71
2022/07/19 00:51:12;;;;;;;1.83;1.73;;;23.20;58.30;;;;;;5051010;28;20206;-71
2022/07/19 00:53:39;;;;;;;1.90;1.80;;;23.20;58.30;;;;;;5050998;28;20232;-71
2022/07/19 00:56:08;;;;;;;1.73;1.63;;;23.20;58.30;;;;;;5050376;28;20190;-71
2022/07/19 00:58:36;;;;;;;1.92;1.83;;;23.20;58.30;;;;;;5052112;28;20209;-71
2022/07/19 01:01:04;;;;;;;1.52;1.42;;;23.20;58.30;;;;;;5050657;28;20198;-71
2022/07/19 01:03:30;;;;;;;1.70;1.60;;;23.20;58.30;;;;;;5052135;28;20236;-71
2022/07/19 01:05:56;;;;;;;2.70;1.75;;;23.20;58.30;;;;;;5050369;28;20214;-71
2022/07/19 01:08:22;;;;;;;1.80;1.70;;;23.20;58.30;;;;;;5034530;28;20182;-71
2022/07/19 01:10:48;;;;;;;1.67;1.58;;;23.20;58.30;;;;;;5051988;28;20244;-71
2022/07/19 01:13:14;;;;;;;2.05;1.75;;;23.20;58.30;;;;;;5050918;28;20207;-71
2022/07/19 01:15:41;;;;;;;2.15;1.65;;;23.20;58.30;;;;;;5051368;28;20167;-71
2022/07/19 01:18:08;;;;;;;2.03;1.80;;;23.20;58.40;;;;;;5050775;28;20243;-71
2022/07/19 01:20:34;;;;;;;1.90;1.70;;;23.10;58.20;;;;;;5051992;28;20266;-71
2022/07/19 01:23:01;;;;;;;2.03;1.92;;;23.20;58.40;;;;;;5050735;28;20839;-71
2022/07/19 01:25:31;;;;;;;2.15;1.63;;;23.20;58.40;;;;;;5051227;28;20219;-71
2022/07/19 01:27:57;;;;;;;1.80;1.70;;;23.10;58.30;;;;;;5050621;28;20240;-71
2022/07/19 01:30:26;;;;;;;1.70;1.60;;;23.20;58.40;;;;;;5051880;28;20171;-71
2022/07/19 01:32:54;;;;;;;1.80;1.70;;;23.10;58.30;;;;;;5050827;28;20206;-71
2022/07/19 01:35:20;;;;;;;1.67;1.58;;;23.10;58.30;;;;;;5066943;28;20218;-71
2022/07/19 01:37:47;;;;;;;1.77;1.67;;;23.20;58.40;;;;;;5050704;28;20185;-71
2022/07/19 01:40:17;;;;;;;1.98;1.88;;;23.10;58.20;;;;;;5034161;28;20190;-71
2022/07/19 01:42:45;;;;;;;2.00;1.90;;;23.10;58.30;;;;;;5051519;28;20201;-71
2022/07/19 01:45:12;;;;;;;1.80;1.70;;;23.20;58.40;;;;;;5033411;28;20206;-71
2022/07/19 01:47:40;;;;;;;1.80;1.70;;;23.10;58.30;;;;;;5036352;28;20182;-71
2022/07/19 01:50:09;;;;;;;1.85;1.75;;;23.20;58.40;;;;;;5054159;28;20193;-71
2022/07/19 01:52:35;;;;;;;2.35;1.80;;;23.10;58.30;;;;;;5054173;28;20226;-72
2022/07/19 01:55:01;;;;;;;1.73;1.63;;;23.20;58.40;;;;;;5052882;28;20246;-71
2022/07/19 01:57:28;;;;;;;2.63;1.77;;;23.10;58.30;;;;;;5054026;28;20701;-71
2022/07/19 01:59:54;;;;;;;1.80;1.70;;;23.10;58.20;;;;;;5053995;28;20178;-71
2022/07/19 02:02:21;;;;;;;1.65;1.55;;;23.10;58.30;;;;;;5054027;28;20219;-71
2022/07/19 02:04:47;;;;;;;2.17;2.08;;;23.10;58.30;;;;;;5053382;28;20175;-71
2022/07/19 02:07:13;;;;;;;1.88;1.60;;;23.10;58.30;;;;;;5037510;28;20186;-71
2022/07/19 02:09:39;;;;;;;2.08;1.98;;;23.10;59.00;;;;;;5053644;28;20186;-71
2022/07/19 02:12:05;;;;;;;1.52;1.42;;;23.10;58.30;;;;;;5037062;28;20240;-71
2022/07/19 02:14:31;;;;;;;1.90;1.80;;;23.10;58.40;;;;;;5054678;28;20171;-71
2022/07/19 02:16:57;;;;;;;1.73;1.63;;;23.10;58.40;;;;;;5054878;28;20185;-71
2022/07/19 02:19:22;;;;;;;1.77;1.67;;;23.10;58.40;;;;;;5054834;28;20185;-71
2022/07/19 02:21:48;;;;;;;1.75;1.65;;;23.10;58.40;;;;;;5053420;28;20263;-71
2022/07/19 02:24:14;;;;;;;1.80;1.70;;;23.10;58.40;;;;;;5053903;28;20178;-71
2022/07/19 02:26:40;;;;;;;1.67;1.58;;;23.10;58.90;;;;;;5052778;28;20206;-71
2022/07/19 02:29:06;;;;;;;1.70;1.60;;;23.10;58.40;;;;;;5053441;28;20183;-71
2022/07/19 02:31:33;;;;;;;1.70;1.60;;;23.10;58.40;;;;;;5053291;28;20297;-71
2022/07/19 02:33:59;;;;;;;1.95;1.70;;;23.10;58.40;;;;;;5053492;28;20191;-71
2022/07/19 02:36:25;;;;;;;1.90;1.80;;;23.10;58.40;;;;;;5052744;28;20194;-71
2022/07/19 02:38:51;;;;;;;2.03;1.73;;;23.10;58.40;;;;;;5053400;28;20216;-71
2022/07/19 02:41:17;;;;;;;1.75;1.65;;;23.10;58.40;;;;;;5053253;28;20214;-71
2022/07/19 02:43:44;;;;;;;1.80;1.70;;;23.10;58.40;;;;;;5053095;28;20198;-71
2022/07/19 02:46:10;;;;;;;1.95;1.80;;;23.10;58.40;;;;;;5052355;28;20213;-71
2022/07/19 02:48:36;;;;;;;1.77;1.67;;;23.10;58.40;;;;;;5053287;28;20190;-71
2022/07/19 02:51:02;;;;;;;1.85;1.75;;;23.10;58.40;;;;;;5054220;28;20178;-71
2022/07/19 02:53:28;;;;;;;1.50;1.40;;;23.10;58.40;;;;;;5052997;28;20178;-71
2022/07/19 02:55:53;;;;;;;2.03;1.83;;;23.10;58.40;;;;;;5051440;28;20193;-71
2022/07/19 02:58:19;;;;;;;1.90;1.75;;;23.10;58.40;;;;;;5049691;28;20281;-71
2022/07/19 03:00:45;;;;;;;1.63;1.52;;;23.10;58.50;;;;;;5052673;28;20248;-71
2022/07/19 03:05:56;;;;;;;1.60;1.50;;;23.10;58.50;;;;;;5053416;28;20214;-71
2022/07/19 03:08:22;;;;;;;1.92;1.83;;;23.00;58.40;;;;;;5052733;28;20264;-71
2022/07/19 03:10:48;;;;;;;1.80;1.70;;;23.10;58.50;;;;;;5052527;28;20248;-70
2022/07/19 03:13:14;;;;;;;1.90;1.75;;;23.10;58.50;;;;;;5052723;28;20170;-71
2022/07/19 03:15:39;;;;;;;2.10;1.90;;;23.10;58.50;;;;;;5053189;28;20270;-71
2022/07/19 03:18:06;;;;;;;1.95;1.80;;;23.00;58.40;;;;;;5052616;28;20693;-71
2022/07/19 03:20:32;;;;;;;2.10;2.00;;;23.00;58.40;;;;;;5052463;28;20705;-71
2022/07/19 03:22:58;;;;;;;1.90;1.80;;;23.00;58.40;;;;;;5053412;28;20209;-71
2022/07/19 03:25:24;;;;;;;1.85;1.75;;;23.00;58.40;;;;;;5051861;28;20659;-71
2022/07/19 03:27:53;;;;;;;1.75;1.65;;;23.00;58.40;;;;;;5052303;28;20174;-71
2022/07/19 03:30:19;;;;;;;1.77;1.55;;;23.10;58.50;;;;;;5035838;28;20193;-71
2022/07/19 03:32:44;;;;;;;1.67;1.58;;;23.10;58.50;;;;;;5052181;28;20198;-71
2022/07/19 03:35:10;;;;;;;1.58;1.48;;;23.00;58.40;;;;;;5051547;28;20186;-71
2022/07/19 03:37:36;;;;;;;1.95;1.85;;;23.00;58.40;;;;;;5052011;28;20196;-71
2022/07/19 03:40:03;;;;;;;1.80;1.70;;;23.00;58.50;;;;;;5052037;28;20269;-71
2022/07/19 03:42:29;;;;;;;2.17;1.90;;;23.00;58.40;;;;;;5051900;28;20207;-71
2022/07/19 03:44:54;;;;;;;1.95;1.83;;;23.00;58.40;;;;;;5051257;28;20192;-71
2022/07/19 03:47:20;;;;;;;1.77;1.67;;;23.00;58.40;;;;;;5035271;28;20182;-71
2022/07/19 03:49:46;;;;;;;2.08;1.80;;;23.00;58.40;;;;;;5053137;28;20215;-71
2022/07/19 03:52:13;;;;;;;1.98;1.88;;;23.00;58.40;;;;;;5051771;28;20213;-71
2022/07/19 03:54:39;;;;;;;2.10;1.90;;;23.00;58.40;;;;;;5051954;28;20553;-71
2022/07/19 03:57:05;;;;;;;2.22;2.03;;;23.00;58.40;;;;;;5034796;28;20174;-71
2022/07/19 03:59:31;;;;;;;2.00;1.90;;;23.00;58.40;;;;;;5035510;28;20193;-71
2022/07/19 04:01:57;;;;;;;2.72;2.05;;;23.00;58.40;;;;;;5052806;28;20758;-71
2022/07/19 04:04:22;;;;;;;2.55;1.63;;;23.00;58.40;;;;;;5051730;28;20175;-71
2022/07/19 04:06:48;;;;;;;2.15;1.90;;;23.00;58.40;;;;;;5052307;28;20251;-71
2022/07/19 04:09:14;;;;;;;1.83;1.73;;;23.00;58.40;;;;;;5051366;28;20584;-71
2022/07/19 04:11:40;;;;;;;2.55;1.80;;;23.00;58.40;;;;;;5051490;28;20202;-71
2022/07/19 04:14:06;;;;;;;2.10;1.90;;;23.00;58.40;;;;;;5051397;28;20182;-71
2022/07/19 04:16:33;;;;;;;2.75;1.90;;;23.00;58.40;;;;;;5050980;28;20194;-71
2022/07/19 04:18:58;;;;;;;2.22;2.03;;;23.00;58.40;;;;;;5051382;28;20182;-71
2022/07/19 04:21:24;;;;;;;2.80;1.88;;;23.00;58.40;;;;;;5051295;28;20212;-71
2022/07/19 04:23:50;;;;;;;1.90;1.80;;;23.00;58.40;;;;;;5051398;28;20240;-71
2022/07/19 04:26:16;;;;;;;2.00;1.63;;;23.00;58.40;;;;;;5050603;28;20214;-71
2022/07/19 04:28:41;;;;;;;2.90;2.00;;;23.00;58.40;;;;;;5034639;28;20262;-71
2022/07/19 04:31:07;;;;;;;1.75;1.65;;;23.00;58.40;;;;;;5034432;28;20271;-71
2022/07/19 04:33:33;;;;;;;2.78;1.98;;;23.00;58.40;;;;;;5051317;28;20163;-71
2022/07/19 04:35:59;;;;;;;2.70;2.03;;;23.00;58.40;;;;;;5050886;28;20277;-71
2022/07/19 04:38:24;;;;;;;2.20;1.90;;;22.90;58.30;;;;;;5052078;28;20178;-71
2022/07/19 04:40:51;;;;;;;2.80;2.28;;;23.00;58.50;;;;;;5050571;28;20273;-71
2022/07/19 04:43:17;;;;;;;1.73;1.63;;;22.90;58.40;;;;;;5051702;28;20740;-71
2022/07/19 04:45:44;;;;;;;1.90;1.80;;;23.00;58.40;;;;;;5049211;28;20210;-71
2022/07/19 04:48:13;;;;;;;1.73;1.63;;;23.00;58.40;;;;;;5033990;28;20187;-71
2022/07/19 04:50:41;;;;;;;2.05;1.60;;;22.90;58.30;;;;;;5051652;28;20206;-71
2022/07/19 04:53:07;;;;;;;1.70;1.60;;;23.00;58.40;;;;;;5050464;28;20297;-71
2022/07/19 04:55:35;;;;;;;2.03;1.85;;;22.90;58.30;;;;;;5051034;28;20191;-71
2022/07/19 04:58:01;;;;;;;1.70;1.60;;;22.90;58.30;;;;;;5051732;28;20227;-71
2022/07/19 05:00:28;;;;;;;2.40;1.85;;;22.90;58.30;;;;;;5050263;28;20186;-71
2022/07/19 05:02:55;;;;;;;2.10;1.70;;;22.90;58.30;;;;;;5051508;28;20253;-71
2022/07/19 05:05:21;;;;;;;2.05;1.85;;;22.90;58.30;;;;;;5049516;28;20206;-71
2022/07/19 05:07:47;;;;;;;2.33;2.15;;;22.90;58.30;;;;;;5050247;28;20182;-72
2022/07/19 05:10:13;;;;;;;2.67;2.10;;;22.90;58.30;;;;;;5051607;28;20178;-71
2022/07/19 05:12:40;;;;;;;1.73;1.63;;;23.00;58.50;;;;;;5051403;28;20218;-71
2022/07/19 05:15:08;;;;;;;2.20;1.85;;;22.90;58.30;;;;;;5051074;28;20182;-71
2022/07/19 05:17:34;;;;;;;1.73;1.63;;;23.00;58.40;;;;;;5021705;28;20191;-71
2022/07/19 05:20:01;;;;;;;2.10;1.90;;;22.90;58.30;;;;;;5030185;28;20194;-71
2022/07/19 05:22:27;;;;;;;2.47;2.13;;;23.00;58.40;;;;;;5033542;28;20207;-71
2022/07/19 05:24:54;;;;;;;1.60;1.50;;;22.90;58.40;;;;;;5033555;28;20298;-70
2022/07/19 05:27:20;;;;;;;1.80;1.70;;;22.90;58.30;;;;;;5034042;28;20195;-71
2022/07/19 05:29:45;;;;;;;2.40;1.70;;;22.90;58.30;;;;;;5034046;28;20230;-71
2022/07/19 05:32:11;;;;;;;1.85;1.75;;;22.90;58.30;;;;;;5035256;28;20199;-71
2022/07/19 05:34:37;;;;;;;2.28;2.08;;;22.90;58.30;;;;;;5034019;28;20566;-71
2022/07/19 05:37:03;;;;;;;2.63;1.60;;;23.00;58.40;;;;;;5050060;28;20250;-71
2022/07/19 05:39:29;;;;;;;2.10;1.90;;;23.00;58.40;;;;;;5033871;28;20187;-71
2022/07/19 05:41:55;;;;;;;1.75;1.65;;;23.00;58.40;;;;;;5033857;28;20218;-71
2022/07/19 05:44:21;;;;;;;1.75;1.65;;;23.00;58.40;;;;;;5033724;28;20197;-71
2022/07/19 05:46:47;;;;;;;2.22;1.60;;;22.90;58.30;;;;;;5032962;28;20215;-71
2022/07/19 05:49:13;;;;;;;1.80;1.70;;;22.90;58.30;;;;;;5017321;28;20190;-71
2022/07/19 05:51:40;;;;;;;1.85;1.42;;;23.00;58.30;;;;;;5017187;28;20203;-71
2022/07/19 05:54:06;;;;;;;1.90;1.80;;;23.00;58.30;;;;;;5033716;28;20228;-71
2022/07/19 05:56:33;;;;;;;1.75;1.65;;;23.00;58.20;;;;;;5016517;28;20187;-72
2022/07/19 05:58:59;;;;;;;1.83;1.73;;;23.00;58.20;;;;;;5033866;28;20183;-71
2022/07/19 06:01:25;;;;;;;1.80;1.70;;;23.00;58.10;;;;;;5033487;28;20593;-72
2022/07/19 06:03:55;;;;;;;1.85;1.67;;;23.00;58.10;;;;;;5034651;28;20253;-72
2022/07/19 06:06:23;;;;;;;1.95;1.85;;;23.00;58.10;;;;;;5034830;28;20211;-72
2022/07/19 06:08:49;;;;;;;2.75;1.95;;;23.00;58.00;;;;;;5053305;28;20193;-71
2022/07/19 06:11:17;;;;;;;1.65;1.55;;;23.00;58.00;;;;;;5053319;28;20222;-72
2022/07/19 06:13:44;;;;;;;1.45;1.35;;;23.00;58.00;;;;;;5036532;28;20195;-71
2022/07/19 06:16:11;;;;;;;1.45;1.35;;;23.00;57.90;;;;;;5052786;28;20284;-72
2022/07/19 06:18:38;;;;;;;1.88;1.77;;;23.00;57.90;;;;;;5054306;28;20186;-71
2022/07/19 06:21:11;;;;;;;1.73;1.63;;;23.00;58.00;;;;;;5033357;28;20191;-72
2022/07/19 06:23:38;;;;;;;2.08;1.80;;;23.00;58.00;;;;;;5066417;28;20186;-71
2022/07/19 06:26:06;;;;;;;2.45;1.50;;;23.00;58.00;;;;;;5053297;28;20242;-71
2022/07/19 06:28:32;;;;;;;1.58;1.48;;;23.00;57.90;;;;;;5050407;28;20186;-71
2022/07/19 06:30:58;;;;;;;1.50;1.40;;;23.00;57.90;;;;;;5053693;28;20232;-71
2022/07/19 06:33:24;;;;;;;1.70;1.60;;;23.00;57.90;;;;;;5052955;28;20244;-71
2022/07/19 06:35:50;;;;;;;1.58;1.48;;;23.10;57.90;;;;;;5035656;28;20632;-72
2022/07/19 06:38:17;;;;;;;1.60;1.50;;;23.00;57.70;;;;;;5052879;28;20183;-72
2022/07/19 06:40:43;;;;;;;1.90;1.75;;;23.10;57.80;;;;;;5053896;28;20186;-72
2022/07/19 06:43:09;;;;;;;1.50;1.40;;;23.00;57.70;;;;;;5052258;28;20206;-72
2022/07/19 06:45:35;;;;;;;2.10;1.90;;;23.00;57.70;;;;;;5052042;28;20573;-71
2022/07/19 06:48:01;;;;;;;1.48;1.38;;;23.10;57.70;;;;;;5052267;28;20182;-71
2022/07/19 06:50:27;;;;;;;2.80;1.55;;;23.10;58.20;;;;;;5053975;28;20282;-72
2022/07/19 06:52:53;;;;;;;2.63;1.58;;;23.10;57.70;;;;;;5052001;28;20206;-72
2022/07/19 06:55:19;;;;;;;1.73;1.63;;;23.10;57.70;;;;;;5051903;28;20202;-71
2022/07/19 06:57:44;;;;;;;1.90;1.80;;;23.10;57.80;;;;;;5052841;28;20190;-71
2022/07/19 07:00:12;;;;;;;1.50;1.40;;;23.10;57.70;;;;;;5052462;28;20207;-71
2022/07/19 07:02:39;;;;;;;1.73;1.63;;;23.10;57.80;;;;;;5052604;28;20213;-72
2022/07/19 07:05:07;;;;;;;2.45;1.67;;;23.10;57.60;;;;;;5035179;28;20221;-71
2022/07/19 07:07:33;;;;;;;1.58;1.48;;;23.10;57.70;;;;;;5049444;28;20178;-71
2022/07/19 07:10:01;;;;;;;2.03;1.50;;;23.10;57.80;;;;;;5032222;28;20225;-71
2022/07/19 07:12:28;;;;;;;2.00;1.55;;;23.10;57.70;;;;;;5015675;28;20764;-71
2022/07/19 07:14:55;;;;;;;1.70;1.60;;;23.10;57.70;;;;;;5031220;28;20237;-72
2022/07/19 07:17:21;;;;;;;2.33;1.67;;;23.10;57.70;;;;;;5031704;28;20183;-71
2022/07/19 07:19:47;;;;;;;3.25;1.45;;;23.10;57.70;;;;;;5032049;28;20191;-71
2022/07/19 07:22:14;;;;;;;1.50;1.40;;;23.10;57.80;;;;;;5031952;28;20214;-72
2022/07/19 07:24:40;;;;;;;1.77;1.67;;;23.10;57.70;;;;;;5031054;28;20179;-69
2022/07/19 07:27:05;;;;;;;1.70;1.60;;;23.10;57.60;;;;;;5032540;28;20215;-69
2022/07/19 07:29:31;;;;;;;1.83;1.52;;;23.20;57.70;;;;;;5031651;28;20179;-69
2022/07/19 07:31:57;;;;;;;1.88;1.40;;;23.10;57.60;;;;;;5032794;28;20302;-69
2022/07/19 07:34:23;;;;;;;1.73;1.63;;;23.10;57.70;;;;;;5032872;28;20226;-69
2022/07/19 07:36:49;;;;;;;1.60;1.50;;;23.20;57.80;;;;;;5031099;28;20188;-69
2022/07/19 07:39:15;;;;;;;1.42;1.33;;;23.10;57.70;;;;;;5032946;28;20214;-70
2022/07/19 07:41:41;;;;;;;1.48;1.38;;;23.10;57.70;;;;;;5031634;28;20686;-69
2022/07/19 07:44:07;;;;;;;1.60;1.50;;;23.10;57.70;;;;;;5032360;28;20191;-69
2022/07/19 07:46:33;;;;;;;1.65;1.30;;;23.10;57.70;;;;;;5032214;28;20215;-69
2022/07/19 07:48:59;;;;;;;2.67;1.60;;;23.20;57.80;;;;;;5031659;28;20186;-69
2022/07/19 07:51:25;;;;;;;1.92;1.83;;;23.20;57.70;;;;;;5032687;28;20199;-69
2022/07/19 07:53:51;;;;;;;1.67;1.58;;;23.20;57.60;;;;;;5031499;28;20188;-69
2022/07/19 07:56:17;;;;;;;1.77;1.63;;;23.20;57.60;;;;;;5030789;28;20195;-69
2022/07/19 07:58:43;;;;;;;1.60;1.50;;;23.20;57.60;;;;;;5031378;28;20194;-69
2022/07/19 08:01:09;;;;;;;1.40;1.30;;;23.20;57.60;;;;;;5031473;28;20261;-71
2022/07/19 08:03:35;;;;;;;2.00;1.65;;;23.20;57.60;;;;;;5031386;28;20615;-69
2022/07/19 08:06:02;;;;;;;1.70;1.60;;;23.20;57.50;;;;;;5037636;28;20256;-69
2022/07/19 08:08:27;;;;;;;1.80;1.70;;;23.20;57.50;;;;;;5052264;28;20214;-69
2022/07/19 08:10:55;;;;;;;1.63;1.52;;;23.20;57.60;;;;;;5051068;28;20206;-69
2022/07/19 08:13:22;;;;;;;1.88;1.67;;;23.20;57.60;;;;;;5052205;28;20178;-69
2022/07/19 08:15:48;;;;;;;2.05;1.70;;;23.30;57.70;;;;;;5050203;28;20281;-69
2022/07/19 08:18:14;;;;;;;2.60;1.80;;;23.30;57.60;;;;;;5031088;28;20233;-69
2022/07/19 08:20:40;;;;;;;2.00;1.90;;;23.30;57.60;;;;;;5032201;28;20237;-69
2022/07/19 08:23:06;;;;;;;1.70;1.60;;;23.30;57.80;;;;;;5032051;28;20273;-69
2022/07/19 08:25:35;;;;;;;1.90;1.80;;;23.30;57.70;;;;;;5031691;28;20218;-69
2022/07/19 08:28:02;;;;;;;1.75;1.65;;;23.30;57.60;;;;;;5032081;28;20194;-69
2022/07/19 08:30:28;;;;;;;1.40;1.30;;;23.30;57.80;;;;;;5032113;28;20202;-69
2022/07/19 08:32:54;;;;;;;1.80;1.70;;;23.30;57.70;;;;;;5030850;28;20211;-69
2022/07/19 08:35:20;;;;;;;1.95;1.80;;;23.40;57.80;;;;;;5030179;28;20191;-69
2022/07/19 08:37:45;;;;;;;2.35;1.60;;;23.40;57.80;;;;;;5031976;28;20187;-69
2022/07/19 08:40:11;;;;;;;2.95;1.60;;;23.40;57.90;;;;;;5014290;28;20183;-69
2022/07/19 08:42:38;;;;;;;1.63;1.52;;;23.40;57.80;;;;;;5030656;28;20265;-69
2022/07/19 08:45:08;;;;;;;1.90;1.80;;;23.40;57.80;;;;;;5030623;28;20240;-69
2022/07/19 08:47:35;;;;;;;2.05;1.80;;;23.40;57.90;;;;;;5030560;28;20190;-69
2022/07/19 08:50:05;;;;;;;3.38;1.80;;;23.40;57.80;;;;;;5033616;28;20191;-69
2022/07/19 08:52:35;;;;;;;1.60;1.50;;;23.40;58.00;;;;;;5050509;28;20693;-69
2022/07/19 08:55:03;;;;;;;1.77;1.40;;;23.40;57.90;;;;;;5050698;28;20186;-69
2022/07/19 09:00:13;;;;;;;1.73;1.60;;;23.50;57.80;;;;;;5055972;28;20243;-69
2022/07/19 09:02:40;;;;;;;1.35;1.30;;;23.50;58.00;;;;;;5053234;28;20213;-69
2022/07/19 09:05:09;;;;;;;1.92;1.75;;;23.50;57.80;;;;;;5054194;28;20216;-69
2022/07/19 09:07:39;;;;;;;2.03;1.70;;;23.50;57.80;;;;;;5053966;28;20182;-69
2022/07/19 09:10:23;;;;;;;1.98;1.85;;;23.40;57.80;;;;;;5037925;28;20182;-70
2022/07/19 09:13:15;;;;;;;2.40;1.50;;;23.40;58.00;;;;;;5053850;28;20217;-69
2022/07/19 09:15:53;;;;;;;1.67;1.45;;;23.40;58.00;;;;;;5071076;28;20182;-68
2022/07/19 09:18:28;;;;;;;1.77;1.67;;;23.40;57.70;;;;;;5071334;28;20208;-69
2022/07/19 09:20:58;;;;;;;1.83;1.60;;;23.40;57.90;;;;;;5054659;28;20177;-69
2022/07/19 09:23:25;;;;;;;2.45;1.60;;;23.40;57.80;;;;;;5054849;28;20285;-69
2022/07/19 09:26:04;;;;;;;1.88;1.77;;;23.40;58.00;;;;;;5055021;28;20245;-69
2022/07/19 09:28:34;;;;;;;1.70;1.60;;;23.40;57.90;;;;;;5034526;28;20183;-69
2022/07/19 09:31:03;;;;;;;2.63;1.77;;;23.40;57.90;;;;;;5017733;28;20232;-69
2022/07/19 09:33:32;;;;;;;1.95;1.85;;;23.40;58.10;;;;;;5035720;28;20175;-69
2022/07/19 09:36:10;;;;;;;2.15;1.90;;;23.40;58.00;;;;;;5034447;28;20192;-69
2022/07/19 09:38:37;;;;;;;2.25;1.52;;;23.40;57.70;;;;;;5034134;28;20195;-69
2022/07/19 09:41:19;;;;;;;1.92;1.52;;;23.40;57.70;;;;;;5034153;28;20229;-69
2022/07/19 09:43:59;;;;;;;2.28;2.10;;;23.40;57.60;;;;;;5051141;28;20183;-69
2022/07/19 09:46:34;;;;;;;2.00;1.75;;;23.40;57.80;;;;;;5033589;28;20688;-69
2022/07/19 09:49:08;;;;;;;2.85;1.85;;;23.40;57.80;;;;;;5035477;28;20167;-69
2022/07/19 09:51:37;;;;;;;2.55;2.08;;;23.40;57.80;;;;;;5034242;28;20629;-69
2022/07/19 09:54:05;;;;;;;2.50;2.00;;;23.40;57.80;;;;;;5046348;28;20178;-69
2022/07/19 09:56:32;;;;;;;2.13;1.77;;;23.40;57.80;;;;;;5073227;28;20186;-69
2022/07/19 09:58:59;;;;;;;2.05;1.85;;;23.40;57.80;;;;;;5063715;28;20193;-69
2022/07/19 10:01:28;;;;;;;2.67;2.08;;;23.40;57.60;;;;;;5046317;28;20759;-69
2022/07/19 10:04:00;;;;;;;2.03;1.90;;;23.40;57.70;;;;;;5059702;28;20187;-69
2022/07/19 10:06:27;;;;;;;2.53;2.30;;;23.40;57.70;;;;;;5053227;28;20198;-69
2022/07/19 10:08:54;;;;;;;3.13;2.03;;;23.40;57.70;;;;;;5053474;28;20192;-69
2022/07/19 10:11:21;;;;;;;2.20;2.00;;;23.40;57.60;;;;;;5037446;28;20256;-69
2022/07/19 10:13:50;;;;;;;1.85;1.75;;;23.40;57.80;;;;;;5071009;28;20193;-70
2022/07/19 10:16:24;;;;;;;2.05;1.95;;;23.40;58.00;;;;;;5063720;28;20613;-70
2022/07/19 10:19:08;;;;;;;2.88;2.20;;;23.40;58.00;;;;;;5053696;28;20662;-70
2022/07/19 10:21:36;;;;;;;2.03;1.88;;;23.40;58.00;;;;;;5036712;28;20217;-70
2022/07/19 10:24:02;;;;;;;2.13;1.92;;;23.40;57.80;;;;;;5053233;28;20189;-69
2022/07/19 10:26:41;;;;;;;2.10;1.90;;;23.40;58.00;;;;;;5052739;28;20222;-69
2022/07/19 10:29:14;;;;;;;2.67;2.47;;;23.40;57.90;;;;;;5054564;28;20194;-69
2022/07/19 10:31:42;;;;;;;2.33;2.13;;;23.40;57.80;;;;;;5020811;28;20256;-69
2022/07/19 10:34:20;;;;;;;2.17;2.08;;;23.50;57.90;;;;;;5053467;28;20171;-69
2022/07/19 10:36:49;;;;;;;2.75;2.22;;;23.40;57.80;;;;;;5036177;28;20563;-69
2022/07/19 10:39:18;;;;;;;2.28;2.15;;;23.50;57.80;;;;;;5054901;28;20558;-69
2022/07/19 10:42:06;;;;;;;2.38;2.17;;;23.50;58.00;;;;;;5054412;28;20214;-70
2022/07/19 10:44:34;;;;;;;2.15;2.00;;;23.40;57.90;;;;;;5053518;28;20187;-69
2022/07/19 10:47:00;;;;;;;3.42;2.38;;;23.40;57.80;;;;;;5035693;28;20215;-70
2022/07/19 10:49:46;;;;;;;2.55;2.00;;;23.50;58.00;;;;;;5054317;28;20193;-69
2022/07/19 10:52:27;;;;;;;2.45;2.20;;;23.50;57.90;;;;;;5065350;28;20207;-70
2022/07/19 10:55:23;;;;;;;2.35;2.15;;;23.50;57.90;;;;;;5043930;28;20187;-70
2022/07/19 10:57:51;;;;;;;2.40;2.20;;;23.50;57.90;;;;;;5033963;28;20186;-69
2022/07/19 11:00:28;;;;;;;3.03;1.95;;;23.50;57.80;;;;;;5051618;28;20198;-70
2022/07/19 11:03:22;;;;;;;2.83;1.90;;;23.50;58.00;;;;;;5051956;28;20210;-69
2022/07/19 11:05:55;;;;;;;2.42;2.22;;;23.50;58.00;;;;;;5050238;28;20235;-70
2022/07/19 11:08:35;;;;;;;2.22;2.05;;;23.50;57.80;;;;;;5051999;28;20179;-70
2022/07/19 11:11:10;;;;;;;2.25;2.10;;;23.40;57.70;;;;;;5048714;28;20183;-70
2022/07/19 11:13:38;;;;;;;2.53;2.00;;;23.50;57.60;;;;;;5050287;28;20194;-69
2022/07/19 11:16:05;;;;;;;2.33;2.13;;;23.50;57.70;;;;;;5033111;28;20233;-69
2022/07/19 11:18:32;;;;;;;2.83;2.10;;;23.50;57.60;;;;;;5051025;28;20178;-69
2022/07/19 11:21:01;;;;;;;2.47;2.28;;;23.50;57.60;;;;;;5049226;28;20218;-69
2022/07/19 11:23:34;;;;;;;3.30;2.45;;;23.50;57.50;;;;;;5050347;28;20187;-69
2022/07/19 11:26:17;;;;;;;2.75;2.55;;;23.50;57.70;;;;;;5049464;28;20294;-69
2022/07/19 11:28:44;;;;;;;2.05;1.95;;;23.50;57.70;;;;;;5052736;28;20242;-69
2022/07/19 11:31:23;;;;;;;2.10;1.90;;;23.50;57.70;;;;;;5051868;28;20202;-71
2022/07/19 11:33:53;;;;;;;3.08;2.35;;;23.50;57.60;;;;;;5032322;28;20180;-69
2022/07/19 11:36:20;;;;;;;2.95;2.08;;;23.50;57.60;;;;;;5031833;28;20190;-69
2022/07/19 11:38:48;;;;;;;2.80;2.42;;;23.50;57.50;;;;;;5032131;28;20282;-69
2022/07/19 11:41:32;;;;;;;3.15;2.22;;;23.50;57.60;;;;;;5032086;28;20280;-69
2022/07/19 11:44:09;;;;;;;3.33;2.47;;;23.50;57.50;;;;;;5033386;28;20183;-70
2022/07/19 11:46:42;;;;;;;2.05;1.92;;;23.50;57.50;;;;;;5032719;28;20265;-69
2022/07/19 11:49:10;;;;;;;2.72;2.35;;;23.50;57.60;;;;;;5032191;28;20245;-69
2022/07/19 11:51:36;;;;;;;2.90;2.60;;;23.50;57.40;;;;;;5032164;28;20211;-70
2022/07/19 11:54:06;;;;;;;2.50;2.30;;;23.50;57.40;;;;;;5033204;28;20175;-69
2022/07/19 11:56:35;;;;;;;2.30;2.10;;;23.60;57.30;;;;;;5032786;28;20172;-70
2022/07/19 11:59:10;;;;;;;3.03;2.05;;;23.50;57.40;;;;;;5032054;28;20211;-70
2022/07/19 12:01:39;;;;;;;2.20;2.00;;;23.60;57.60;;;;;;5048393;28;20240;-69
2022/07/19 12:04:08;;;;;;;2.47;2.28;;;23.60;57.60;;;;;;5050199;28;20289;-69
2022/07/19 12:06:48;;;;;;;2.40;2.20;;;23.60;57.50;;;;;;5052143;28;20202;-69
2022/07/19 12:09:24;;;;;;;2.70;2.20;;;23.60;57.40;;;;;;5051770;28;20175;-69
2022/07/19 12:11:54;;;;;;;2.22;2.10;;;23.60;57.40;;;;;;5051798;28;20309;-69
2022/07/19 12:14:24;;;;;;;2.35;2.22;;;23.60;57.50;;;;;;5052666;28;20174;-69
2022/07/19 12:17:15;;;;;;;2.88;2.25;;;23.60;57.70;;;;;;5051134;28;20194;-69
2022/07/19 12:20:08;;;;;;;2.35;2.10;;;23.60;57.50;;;;;;5051490;28;20170;-69
2022/07/19 12:22:39;;;;;;;2.40;2.20;;;23.60;57.60;;;;;;5051300;28;20220;-69
2022/07/19 12:25:08;;;;;;;2.65;2.45;;;23.60;57.60;;;;;;5051248;28;20182;-70
2022/07/19 12:27:35;;;;;;;2.63;2.30;;;23.60;57.30;;;;;;5052037;28;20254;-69
2022/07/19 12:30:03;;;;;;;2.33;2.13;;;23.60;57.30;;;;;;5034750;28;20183;-69
2022/07/19 12:32:35;;;;;;;2.65;2.25;;;23.60;57.30;;;;;;5051345;28;20210;-69
2022/07/19 12:35:09;;;;;;;2.47;2.28;;;23.60;57.30;;;;;;5051250;28;20171;-69
2022/07/19 12:37:41;;;;;;;3.80;2.38;;;23.60;57.30;;;;;;5050600;28;20623;-69
2022/07/19 12:40:28;;;;;;;3.10;2.78;;;23.60;57.40;;;;;;5051526;28;20293;-69
2022/07/19 12:43:03;;;;;;;2.65;2.30;;;23.60;57.30;;;;;;5034940;28;20241;-69
2022/07/19 12:45:37;;;;;;;2.65;2.45;;;23.60;57.30;;;;;;5035322;28;20201;-69
2022/07/19 12:48:03;;;;;;;2.20;2.00;;;23.60;57.30;;;;;;5051172;28;20177;-69
2022/07/19 12:50:48;;;;;;;2.17;2.05;;;23.60;57.30;;;;;;5052309;28;20182;-69
2022/07/19 12:53:17;;;;;;;2.50;2.30;;;23.60;57.40;;;;;;5051212;28;20221;-69
2022/07/19 12:55:44;;;;;;;2.40;2.20;;;23.60;57.30;;;;;;5051569;28;20672;-69
2022/07/19 12:58:12;;;;;;;2.20;2.00;;;23.60;57.30;;;;;;5051110;28;20178;-69
2022/07/19 13:00:41;;;;;;;5.22;2.20;;;23.60;57.30;;;;;;5034245;28;20213;-69